sensor_id;sensor_type;location;lat;lon;timestamp;P1;durP1;ratioP1;P2;durP2;ratioP2
2966;SDS011;1493;51.496;7.210;2023-05-07T00:00:45;9.33;;;7.93;;
2966;SDS011;1493;51.496;7.210;2023-05-07T00:03:13;7.67;;;6.80;;
2966;SDS011;1493;51.496;7.210;2023-05-07T00:05:40;7.20;;;6.50;;
2966;SDS011;1493;51.496;7.210;2023-05-07T00:08:07;8.03;;;6.57;;
2966;SDS011;1493;51.496;7.210;2023-05-07T00:10:35;7.87;;;6.40;;
2966;SDS011;1493;51.496;7.210;2023-05-07T00:13:02;6.40;;;5.77;;
2966;SDS011;1493;51.496;7.210;2023-05-07T00:15:29;6.80;;;6.10;;
2966;SDS011;1493;51.496;7.210;2023-05-07T00:17:56;7.53;;;6.73;;
2966;SDS011;1493;51.496;7.210;2023-05-07T00:20:24;8.17;;;7.07;;
2966;SDS011;1493;51.496;7.210;2023-05-07T00:22:51;8.97;;;6.50;;
2966;SDS011;1493;51.496;7.210;2023-05-07T00:25:18;7.03;;;6.33;;
2966;SDS011;1493;51.496;7.210;2023-05-07T00:27:46;7.50;;;6.73;;
2966;SDS011;1493;51.496;7.210;2023-05-07T00:30:13;8.37;;;7.47;;
2966;SDS011;1493;51.496;7.210;2023-05-07T00:32:40;8.00;;;6.37;;
2966;SDS011;1493;51.496;7.210;2023-05-07T00:35:07;8.10;;;7.30;;
2966;SDS011;1493;51.496;7.210;2023-05-07T00:37:34;8.33;;;7.50;;
2966;SDS011;1493;51.496;7.210;2023-05-07T00:40:01;7.27;;;6.57;;
2966;SDS011;1493;51.496;7.210;2023-05-07T00:42:32;9.00;;;7.87;;
2966;SDS011;1493;51.496;7.210;2023-05-07T00:45:00;12.53;;;7.87;;
2966;SDS011;1493;51.496;7.210;2023-05-07T00:47:27;9.07;;;7.83;;
2966;SDS011;1493;51.496;7.210;2023-05-07T00:49:54;10.60;;;8.17;;
2966;SDS011;1493;51.496;7.210;2023-05-07T00:52:22;8.80;;;7.30;;
2966;SDS011;1493;51.496;7.210;2023-05-07T00:54:52;9.37;;;8.47;;
2966;SDS011;1493;51.496;7.210;2023-05-07T00:57:20;10.53;;;9.43;;
2966;SDS011;1493;51.496;7.210;2023-05-07T00:59:47;11.47;;;10.10;;
2966;SDS011;1493;51.496;7.210;2023-05-07T01:02:16;10.07;;;8.80;;
2966;SDS011;1493;51.496;7.210;2023-05-07T01:04:43;9.90;;;8.93;;
2966;SDS011;1493;51.496;7.210;2023-05-07T01:07:10;10.00;;;9.07;;
2966;SDS011;1493;51.496;7.210;2023-05-07T01:09:37;10.10;;;9.10;;
2966;SDS011;1493;51.496;7.210;2023-05-07T01:12:04;10.50;;;9.40;;
2966;SDS011;1493;51.496;7.210;2023-05-07T01:14:32;12.00;;;10.83;;
2966;SDS011;1493;51.496;7.210;2023-05-07T01:17:00;10.27;;;9.30;;
2966;SDS011;1493;51.496;7.210;2023-05-07T01:19:28;11.50;;;10.30;;
2966;SDS011;1493;51.496;7.210;2023-05-07T01:21:57;13.50;;;12.13;;
2966;SDS011;1493;51.496;7.210;2023-05-07T01:24:31;10.23;;;9.23;;
2966;SDS011;1493;51.496;7.210;2023-05-07T01:26:58;13.03;;;11.33;;
2966;SDS011;1493;51.496;7.210;2023-05-07T01:29:26;13.57;;;11.87;;
2966;SDS011;1493;51.496;7.210;2023-05-07T01:31:53;11.67;;;10.50;;
2966;SDS011;1493;51.496;7.210;2023-05-07T01:34:20;12.50;;;11.40;;
2966;SDS011;1493;51.496;7.210;2023-05-07T01:36:48;12.60;;;10.93;;
2966;SDS011;1493;51.496;7.210;2023-05-07T01:39:15;15.63;;;11.17;;
2966;SDS011;1493;51.496;7.210;2023-05-07T01:41:44;13.07;;;10.77;;
2966;SDS011;1493;51.496;7.210;2023-05-07T01:44:12;13.30;;;11.97;;
2966;SDS011;1493;51.496;7.210;2023-05-07T01:46:39;12.67;;;11.37;;
2966;SDS011;1493;51.496;7.210;2023-05-07T01:49:06;12.60;;;11.37;;
2966;SDS011;1493;51.496;7.210;2023-05-07T01:51:33;11.83;;;10.70;;
2966;SDS011;1493;51.496;7.210;2023-05-07T01:54:01;14.67;;;12.03;;
2966;SDS011;1493;51.496;7.210;2023-05-07T01:56:28;13.37;;;12.00;;
2966;SDS011;1493;51.496;7.210;2023-05-07T01:58:56;12.67;;;11.43;;
2966;SDS011;1493;51.496;7.210;2023-05-07T02:01:23;13.47;;;12.20;;
2966;SDS011;1493;51.496;7.210;2023-05-07T02:03:50;12.40;;;11.20;;
2966;SDS011;1493;51.496;7.210;2023-05-07T02:06:17;15.53;;;12.37;;
2966;SDS011;1493;51.496;7.210;2023-05-07T02:08:44;14.50;;;11.60;;
2966;SDS011;1493;51.496;7.210;2023-05-07T02:11:11;12.20;;;10.90;;
2966;SDS011;1493;51.496;7.210;2023-05-07T02:13:38;13.63;;;12.30;;
2966;SDS011;1493;51.496;7.210;2023-05-07T02:16:06;14.13;;;12.80;;
2966;SDS011;1493;51.496;7.210;2023-05-07T02:18:33;14.23;;;12.83;;
2966;SDS011;1493;51.496;7.210;2023-05-07T02:21:00;14.60;;;13.00;;
2966;SDS011;1493;51.496;7.210;2023-05-07T02:23:27;15.83;;;14.27;;
2966;SDS011;1493;51.496;7.210;2023-05-07T02:25:54;13.70;;;12.30;;
2966;SDS011;1493;51.496;7.210;2023-05-07T02:28:21;11.97;;;10.87;;
2966;SDS011;1493;51.496;7.210;2023-05-07T02:30:47;12.63;;;11.33;;
2966;SDS011;1493;51.496;7.210;2023-05-07T02:33:15;14.03;;;12.70;;
2966;SDS011;1493;51.496;7.210;2023-05-07T02:35:42;12.50;;;11.20;;
2966;SDS011;1493;51.496;7.210;2023-05-07T02:38:09;13.67;;;12.30;;
2966;SDS011;1493;51.496;7.210;2023-05-07T02:40:36;15.10;;;12.20;;
2966;SDS011;1493;51.496;7.210;2023-05-07T02:43:04;12.50;;;11.30;;
2966;SDS011;1493;51.496;7.210;2023-05-07T02:45:31;12.77;;;11.50;;
2966;SDS011;1493;51.496;7.210;2023-05-07T02:47:58;11.90;;;10.70;;
2966;SDS011;1493;51.496;7.210;2023-05-07T02:50:26;12.60;;;11.27;;
2966;SDS011;1493;51.496;7.210;2023-05-07T02:52:53;12.57;;;11.27;;
2966;SDS011;1493;51.496;7.210;2023-05-07T02:55:20;13.47;;;12.00;;
2966;SDS011;1493;51.496;7.210;2023-05-07T02:57:47;13.03;;;11.83;;
2966;SDS011;1493;51.496;7.210;2023-05-07T03:00:14;13.50;;;12.07;;
2966;SDS011;1493;51.496;7.210;2023-05-07T03:02:42;13.00;;;11.70;;
2966;SDS011;1493;51.496;7.210;2023-05-07T03:05:09;12.80;;;11.50;;
2966;SDS011;1493;51.496;7.210;2023-05-07T03:07:38;13.30;;;12.00;;
2966;SDS011;1493;51.496;7.210;2023-05-07T03:10:06;12.57;;;11.37;;
2966;SDS011;1493;51.496;7.210;2023-05-07T03:12:33;12.90;;;11.37;;
2966;SDS011;1493;51.496;7.210;2023-05-07T03:15:00;12.87;;;11.70;;
2966;SDS011;1493;51.496;7.210;2023-05-07T03:17:27;14.67;;;13.20;;
2966;SDS011;1493;51.496;7.210;2023-05-07T03:19:54;14.40;;;13.00;;
2966;SDS011;1493;51.496;7.210;2023-05-07T03:22:21;14.00;;;12.33;;
2966;SDS011;1493;51.496;7.210;2023-05-07T03:24:49;14.10;;;11.60;;
2966;SDS011;1493;51.496;7.210;2023-05-07T03:27:16;13.67;;;12.47;;
2966;SDS011;1493;51.496;7.210;2023-05-07T03:29:42;14.40;;;12.67;;
2966;SDS011;1493;51.496;7.210;2023-05-07T03:32:09;13.77;;;12.37;;
2966;SDS011;1493;51.496;7.210;2023-05-07T03:34:36;15.07;;;13.57;;
2966;SDS011;1493;51.496;7.210;2023-05-07T03:37:03;14.67;;;13.17;;
2966;SDS011;1493;51.496;7.210;2023-05-07T03:39:30;14.13;;;12.70;;
2966;SDS011;1493;51.496;7.210;2023-05-07T03:41:58;15.50;;;13.97;;
2966;SDS011;1493;51.496;7.210;2023-05-07T03:44:25;13.97;;;12.47;;
2966;SDS011;1493;51.496;7.210;2023-05-07T03:46:52;16.20;;;14.70;;
2966;SDS011;1493;51.496;7.210;2023-05-07T03:49:19;14.23;;;12.93;;
2966;SDS011;1493;51.496;7.210;2023-05-07T03:51:46;14.50;;;12.97;;
2966;SDS011;1493;51.496;7.210;2023-05-07T03:54:12;14.37;;;12.93;;
2966;SDS011;1493;51.496;7.210;2023-05-07T03:56:39;18.80;;;14.20;;
2966;SDS011;1493;51.496;7.210;2023-05-07T03:59:08;15.97;;;14.37;;
2966;SDS011;1493;51.496;7.210;2023-05-07T04:01:34;17.27;;;15.50;;
2966;SDS011;1493;51.496;7.210;2023-05-07T04:04:01;18.03;;;15.73;;
2966;SDS011;1493;51.496;7.210;2023-05-07T04:06:29;17.10;;;15.50;;
2966;SDS011;1493;51.496;7.210;2023-05-07T04:08:56;17.10;;;15.27;;
2966;SDS011;1493;51.496;7.210;2023-05-07T04:11:23;18.33;;;15.10;;
2966;SDS011;1493;51.496;7.210;2023-05-07T04:13:50;16.57;;;14.77;;
2966;SDS011;1493;51.496;7.210;2023-05-07T04:16:18;16.83;;;15.10;;
2966;SDS011;1493;51.496;7.210;2023-05-07T04:18:45;16.07;;;14.40;;
2966;SDS011;1493;51.496;7.210;2023-05-07T04:21:15;16.47;;;14.77;;
2966;SDS011;1493;51.496;7.210;2023-05-07T04:23:42;16.93;;;15.07;;
2966;SDS011;1493;51.496;7.210;2023-05-07T04:26:08;15.40;;;13.90;;
2966;SDS011;1493;51.496;7.210;2023-05-07T04:28:36;17.63;;;15.87;;
2966;SDS011;1493;51.496;7.210;2023-05-07T04:31:02;18.13;;;16.30;;
2966;SDS011;1493;51.496;7.210;2023-05-07T04:33:31;16.30;;;14.60;;
2966;SDS011;1493;51.496;7.210;2023-05-07T04:35:58;15.03;;;13.53;;
2966;SDS011;1493;51.496;7.210;2023-05-07T04:38:27;14.70;;;13.10;;
2966;SDS011;1493;51.496;7.210;2023-05-07T04:40:54;17.27;;;14.50;;
2966;SDS011;1493;51.496;7.210;2023-05-07T04:43:22;15.67;;;14.07;;
2966;SDS011;1493;51.496;7.210;2023-05-07T04:45:49;16.33;;;14.50;;
2966;SDS011;1493;51.496;7.210;2023-05-07T04:48:16;14.87;;;13.23;;
2966;SDS011;1493;51.496;7.210;2023-05-07T04:50:45;16.97;;;15.17;;
2966;SDS011;1493;51.496;7.210;2023-05-07T04:53:13;17.43;;;14.17;;
2966;SDS011;1493;51.496;7.210;2023-05-07T04:55:40;15.90;;;14.20;;
2966;SDS011;1493;51.496;7.210;2023-05-07T04:58:07;15.30;;;13.90;;
2966;SDS011;1493;51.496;7.210;2023-05-07T05:00:34;14.07;;;12.63;;
2966;SDS011;1493;51.496;7.210;2023-05-07T05:03:01;15.43;;;13.83;;
2966;SDS011;1493;51.496;7.210;2023-05-07T05:05:28;14.27;;;12.87;;
2966;SDS011;1493;51.496;7.210;2023-05-07T05:07:56;14.83;;;13.33;;
2966;SDS011;1493;51.496;7.210;2023-05-07T05:10:23;12.50;;;11.23;;
2966;SDS011;1493;51.496;7.210;2023-05-07T05:12:50;11.70;;;10.50;;
2966;SDS011;1493;51.496;7.210;2023-05-07T05:15:17;14.23;;;12.73;;
2966;SDS011;1493;51.496;7.210;2023-05-07T05:17:44;12.50;;;11.30;;
2966;SDS011;1493;51.496;7.210;2023-05-07T05:20:11;12.73;;;10.53;;
2966;SDS011;1493;51.496;7.210;2023-05-07T05:22:37;13.53;;;9.70;;
2966;SDS011;1493;51.496;7.210;2023-05-07T05:25:06;10.80;;;9.83;;
2966;SDS011;1493;51.496;7.210;2023-05-07T05:27:34;10.50;;;9.40;;
2966;SDS011;1493;51.496;7.210;2023-05-07T05:30:01;9.77;;;8.87;;
2966;SDS011;1493;51.496;7.210;2023-05-07T05:32:27;9.43;;;8.43;;
2966;SDS011;1493;51.496;7.210;2023-05-07T05:34:54;9.40;;;8.50;;
2966;SDS011;1493;51.496;7.210;2023-05-07T05:37:21;8.33;;;7.53;;
2966;SDS011;1493;51.496;7.210;2023-05-07T05:39:48;8.77;;;7.87;;
2966;SDS011;1493;51.496;7.210;2023-05-07T05:42:16;8.73;;;7.53;;
2966;SDS011;1493;51.496;7.210;2023-05-07T05:44:43;7.50;;;6.80;;
2966;SDS011;1493;51.496;7.210;2023-05-07T05:47:10;10.63;;;7.10;;
2966;SDS011;1493;51.496;7.210;2023-05-07T05:49:37;5.90;;;5.30;;
2966;SDS011;1493;51.496;7.210;2023-05-07T05:52:04;7.40;;;6.20;;
2966;SDS011;1493;51.496;7.210;2023-05-07T05:54:30;8.27;;;5.87;;
2966;SDS011;1493;51.496;7.210;2023-05-07T05:56:57;7.30;;;5.77;;
2966;SDS011;1493;51.496;7.210;2023-05-07T05:59:25;6.63;;;6.07;;
2966;SDS011;1493;51.496;7.210;2023-05-07T06:01:52;6.10;;;4.80;;
2966;SDS011;1493;51.496;7.210;2023-05-07T06:04:19;5.37;;;4.87;;
2966;SDS011;1493;51.496;7.210;2023-05-07T06:06:46;5.03;;;4.60;;
2966;SDS011;1493;51.496;7.210;2023-05-07T06:09:13;3.83;;;3.43;;
2966;SDS011;1493;51.496;7.210;2023-05-07T06:11:39;4.40;;;4.00;;
2966;SDS011;1493;51.496;7.210;2023-05-07T06:14:06;4.00;;;3.60;;
2966;SDS011;1493;51.496;7.210;2023-05-07T06:16:34;4.40;;;4.00;;
2966;SDS011;1493;51.496;7.210;2023-05-07T06:19:03;4.90;;;3.97;;
2966;SDS011;1493;51.496;7.210;2023-05-07T06:21:29;5.50;;;3.80;;
2966;SDS011;1493;51.496;7.210;2023-05-07T06:23:56;5.30;;;3.50;;
2966;SDS011;1493;51.496;7.210;2023-05-07T06:26:23;3.53;;;2.77;;
2966;SDS011;1493;51.496;7.210;2023-05-07T06:28:50;4.53;;;3.10;;
2966;SDS011;1493;51.496;7.210;2023-05-07T06:31:17;3.60;;;2.90;;
2966;SDS011;1493;51.496;7.210;2023-05-07T06:33:47;4.77;;;3.33;;
2966;SDS011;1493;51.496;7.210;2023-05-07T06:36:15;6.90;;;3.53;;
2966;SDS011;1493;51.496;7.210;2023-05-07T06:38:42;4.80;;;2.93;;
2966;SDS011;1493;51.496;7.210;2023-05-07T06:41:08;4.13;;;3.10;;
2966;SDS011;1493;51.496;7.210;2023-05-07T06:43:35;4.20;;;3.00;;
2966;SDS011;1493;51.496;7.210;2023-05-07T06:46:02;2.80;;;2.57;;
2966;SDS011;1493;51.496;7.210;2023-05-07T06:48:29;2.67;;;2.40;;
2966;SDS011;1493;51.496;7.210;2023-05-07T06:50:57;2.63;;;2.40;;
2966;SDS011;1493;51.496;7.210;2023-05-07T06:53:24;3.80;;;2.40;;
2966;SDS011;1493;51.496;7.210;2023-05-07T06:55:51;3.47;;;2.50;;
2966;SDS011;1493;51.496;7.210;2023-05-07T06:58:19;4.73;;;3.03;;
2966;SDS011;1493;51.496;7.210;2023-05-07T07:00:45;3.20;;;2.80;;
2966;SDS011;1493;51.496;7.210;2023-05-07T07:03:12;2.90;;;2.27;;
2966;SDS011;1493;51.496;7.210;2023-05-07T07:05:40;2.83;;;2.50;;
2966;SDS011;1493;51.496;7.210;2023-05-07T07:08:08;3.70;;;2.30;;
2966;SDS011;1493;51.496;7.210;2023-05-07T07:10:35;3.60;;;2.33;;
2966;SDS011;1493;51.496;7.210;2023-05-07T07:13:02;7.57;;;2.97;;
2966;SDS011;1493;51.496;7.210;2023-05-07T07:15:29;3.77;;;2.37;;
2966;SDS011;1493;51.496;7.210;2023-05-07T07:17:56;2.50;;;2.30;;
2966;SDS011;1493;51.496;7.210;2023-05-07T07:20:23;3.13;;;2.70;;
2966;SDS011;1493;51.496;7.210;2023-05-07T07:22:49;2.70;;;2.47;;
2966;SDS011;1493;51.496;7.210;2023-05-07T07:25:18;3.30;;;2.40;;
2966;SDS011;1493;51.496;7.210;2023-05-07T07:27:45;3.27;;;2.70;;
2966;SDS011;1493;51.496;7.210;2023-05-07T07:30:11;4.00;;;2.40;;
2966;SDS011;1493;51.496;7.210;2023-05-07T07:32:38;3.83;;;2.80;;
2966;SDS011;1493;51.496;7.210;2023-05-07T07:35:06;3.37;;;3.07;;
2966;SDS011;1493;51.496;7.210;2023-05-07T07:37:33;3.13;;;2.70;;
2966;SDS011;1493;51.496;7.210;2023-05-07T07:40:00;4.10;;;3.07;;
2966;SDS011;1493;51.496;7.210;2023-05-07T07:42:28;4.00;;;3.10;;
2966;SDS011;1493;51.496;7.210;2023-05-07T07:44:55;3.10;;;2.80;;
2966;SDS011;1493;51.496;7.210;2023-05-07T07:47:22;3.90;;;3.20;;
2966;SDS011;1493;51.496;7.210;2023-05-07T07:49:49;4.60;;;3.80;;
2966;SDS011;1493;51.496;7.210;2023-05-07T07:52:16;4.70;;;2.90;;
2966;SDS011;1493;51.496;7.210;2023-05-07T07:54:42;7.37;;;5.43;;
2966;SDS011;1493;51.496;7.210;2023-05-07T07:57:10;5.03;;;4.40;;
2966;SDS011;1493;51.496;7.210;2023-05-07T07:59:38;4.50;;;3.17;;
2966;SDS011;1493;51.496;7.210;2023-05-07T08:02:10;4.43;;;3.60;;
2966;SDS011;1493;51.496;7.210;2023-05-07T08:04:37;4.37;;;3.63;;
2966;SDS011;1493;51.496;7.210;2023-05-07T08:07:04;4.40;;;4.00;;
2966;SDS011;1493;51.496;7.210;2023-05-07T08:09:30;5.13;;;4.63;;
2966;SDS011;1493;51.496;7.210;2023-05-07T08:11:57;6.50;;;4.73;;
2966;SDS011;1493;51.496;7.210;2023-05-07T08:14:24;4.40;;;4.00;;
2966;SDS011;1493;51.496;7.210;2023-05-07T08:16:52;5.27;;;4.57;;
2966;SDS011;1493;51.496;7.210;2023-05-07T08:19:19;4.83;;;4.40;;
2966;SDS011;1493;51.496;7.210;2023-05-07T08:21:46;5.07;;;3.90;;
2966;SDS011;1493;51.496;7.210;2023-05-07T08:24:14;6.17;;;3.67;;
2966;SDS011;1493;51.496;7.210;2023-05-07T08:26:40;6.23;;;3.50;;
2966;SDS011;1493;51.496;7.210;2023-05-07T08:29:07;3.57;;;2.90;;
2966;SDS011;1493;51.496;7.210;2023-05-07T08:31:34;3.70;;;3.13;;
2966;SDS011;1493;51.496;7.210;2023-05-07T08:34:03;6.20;;;4.53;;
2966;SDS011;1493;51.496;7.210;2023-05-07T08:36:30;3.93;;;3.20;;
2966;SDS011;1493;51.496;7.210;2023-05-07T08:38:57;3.67;;;3.37;;
2966;SDS011;1493;51.496;7.210;2023-05-07T08:41:23;4.57;;;2.90;;
2966;SDS011;1493;51.496;7.210;2023-05-07T08:43:50;4.53;;;3.97;;
2966;SDS011;1493;51.496;7.210;2023-05-07T08:46:18;4.23;;;3.83;;
2966;SDS011;1493;51.496;7.210;2023-05-07T08:48:47;4.37;;;3.67;;
2966;SDS011;1493;51.496;7.210;2023-05-07T08:51:17;4.03;;;3.50;;
2966;SDS011;1493;51.496;7.210;2023-05-07T08:53:45;5.90;;;4.03;;
2966;SDS011;1493;51.496;7.210;2023-05-07T08:56:14;4.73;;;3.23;;
2966;SDS011;1493;51.496;7.210;2023-05-07T08:58:42;7.00;;;3.93;;
2966;SDS011;1493;51.496;7.210;2023-05-07T09:01:10;4.03;;;3.57;;
2966;SDS011;1493;51.496;7.210;2023-05-07T09:03:39;4.90;;;3.83;;
2966;SDS011;1493;51.496;7.210;2023-05-07T09:06:07;7.20;;;3.53;;
2966;SDS011;1493;51.496;7.210;2023-05-07T09:08:36;7.23;;;3.20;;
2966;SDS011;1493;51.496;7.210;2023-05-07T09:11:03;3.47;;;3.07;;
2966;SDS011;1493;51.496;7.210;2023-05-07T09:13:30;4.30;;;3.40;;
2966;SDS011;1493;51.496;7.210;2023-05-07T09:15:57;4.50;;;3.67;;
2966;SDS011;1493;51.496;7.210;2023-05-07T09:18:24;6.17;;;4.50;;
2966;SDS011;1493;51.496;7.210;2023-05-07T09:20:51;4.67;;;4.10;;
2966;SDS011;1493;51.496;7.210;2023-05-07T09:23:18;4.20;;;3.63;;
2966;SDS011;1493;51.496;7.210;2023-05-07T09:25:46;3.83;;;3.50;;
2966;SDS011;1493;51.496;7.210;2023-05-07T09:28:13;4.00;;;3.40;;
2966;SDS011;1493;51.496;7.210;2023-05-07T09:30:39;4.23;;;3.80;;
2966;SDS011;1493;51.496;7.210;2023-05-07T09:33:06;5.40;;;4.40;;
2966;SDS011;1493;51.496;7.210;2023-05-07T09:35:33;3.83;;;3.53;;
2966;SDS011;1493;51.496;7.210;2023-05-07T09:38:00;6.10;;;3.90;;
2966;SDS011;1493;51.496;7.210;2023-05-07T09:40:29;6.07;;;4.17;;
2966;SDS011;1493;51.496;7.210;2023-05-07T09:43:07;5.30;;;3.90;;
2966;SDS011;1493;51.496;7.210;2023-05-07T09:45:36;6.40;;;4.40;;
2966;SDS011;1493;51.496;7.210;2023-05-07T09:48:04;3.87;;;3.47;;
2966;SDS011;1493;51.496;7.210;2023-05-07T09:50:32;4.03;;;3.63;;
2966;SDS011;1493;51.496;7.210;2023-05-07T09:53:03;4.90;;;4.40;;
2966;SDS011;1493;51.496;7.210;2023-05-07T09:55:30;4.63;;;3.80;;
2966;SDS011;1493;51.496;7.210;2023-05-07T09:57:59;3.97;;;3.57;;
2966;SDS011;1493;51.496;7.210;2023-05-07T10:00:27;5.60;;;4.10;;
2966;SDS011;1493;51.496;7.210;2023-05-07T10:02:56;3.83;;;3.10;;
2966;SDS011;1493;51.496;7.210;2023-05-07T10:05:24;4.63;;;4.23;;
2966;SDS011;1493;51.496;7.210;2023-05-07T10:07:53;4.30;;;3.50;;
2966;SDS011;1493;51.496;7.210;2023-05-07T10:10:22;5.33;;;4.57;;
2966;SDS011;1493;51.496;7.210;2023-05-07T10:12:50;5.23;;;3.70;;
2966;SDS011;1493;51.496;7.210;2023-05-07T10:15:19;3.83;;;3.43;;
2966;SDS011;1493;51.496;7.210;2023-05-07T10:17:47;3.50;;;2.97;;
2966;SDS011;1493;51.496;7.210;2023-05-07T10:20:15;3.20;;;2.70;;
2966;SDS011;1493;51.496;7.210;2023-05-07T10:22:43;3.20;;;2.60;;
2966;SDS011;1493;51.496;7.210;2023-05-07T10:25:14;4.90;;;2.93;;
2966;SDS011;1493;51.496;7.210;2023-05-07T10:27:43;3.37;;;2.10;;
2966;SDS011;1493;51.496;7.210;2023-05-07T10:30:16;3.67;;;2.23;;
2966;SDS011;1493;51.496;7.210;2023-05-07T10:32:53;4.10;;;2.07;;
2966;SDS011;1493;51.496;7.210;2023-05-07T10:35:24;3.60;;;2.63;;
2966;SDS011;1493;51.496;7.210;2023-05-07T10:37:55;3.93;;;2.60;;
2966;SDS011;1493;51.496;7.210;2023-05-07T10:40:22;3.60;;;2.73;;
2966;SDS011;1493;51.496;7.210;2023-05-07T10:42:55;4.30;;;3.23;;
2966;SDS011;1493;51.496;7.210;2023-05-07T10:45:26;5.70;;;3.10;;
2966;SDS011;1493;51.496;7.210;2023-05-07T10:48:06;3.20;;;2.40;;
2966;SDS011;1493;51.496;7.210;2023-05-07T10:50:34;3.80;;;2.80;;
2966;SDS011;1493;51.496;7.210;2023-05-07T10:55:49;5.97;;;2.93;;
2966;SDS011;1493;51.496;7.210;2023-05-07T10:58:23;4.50;;;3.47;;
2966;SDS011;1493;51.496;7.210;2023-05-07T11:00:55;5.77;;;3.83;;
2966;SDS011;1493;51.496;7.210;2023-05-07T11:03:23;5.63;;;3.40;;
2966;SDS011;1493;51.496;7.210;2023-05-07T11:06:07;4.20;;;3.60;;
2966;SDS011;1493;51.496;7.210;2023-05-07T11:08:54;4.00;;;3.53;;
2966;SDS011;1493;51.496;7.210;2023-05-07T11:14:11;3.20;;;2.90;;
2966;SDS011;1493;51.496;7.210;2023-05-07T11:16:39;5.53;;;3.63;;
2966;SDS011;1493;51.496;7.210;2023-05-07T11:19:09;4.13;;;3.20;;
2966;SDS011;1493;51.496;7.210;2023-05-07T11:21:36;4.93;;;4.23;;
2966;SDS011;1493;51.496;7.210;2023-05-07T11:24:04;4.37;;;3.70;;
2966;SDS011;1493;51.496;7.210;2023-05-07T11:26:41;5.70;;;2.97;;
2966;SDS011;1493;51.496;7.210;2023-05-07T11:29:13;4.50;;;3.63;;
2966;SDS011;1493;51.496;7.210;2023-05-07T11:31:44;3.30;;;2.87;;
2966;SDS011;1493;51.496;7.210;2023-05-07T11:34:15;2.97;;;2.30;;
2966;SDS011;1493;51.496;7.210;2023-05-07T11:36:47;4.40;;;2.40;;
2966;SDS011;1493;51.496;7.210;2023-05-07T11:39:28;3.90;;;3.30;;
2966;SDS011;1493;51.496;7.210;2023-05-07T11:41:56;4.27;;;3.87;;
2966;SDS011;1493;51.496;7.210;2023-05-07T11:44:23;3.40;;;2.70;;
2966;SDS011;1493;51.496;7.210;2023-05-07T11:46:51;3.97;;;3.43;;
2966;SDS011;1493;51.496;7.210;2023-05-07T11:49:18;3.80;;;3.40;;
2966;SDS011;1493;51.496;7.210;2023-05-07T11:51:45;4.43;;;3.23;;
2966;SDS011;1493;51.496;7.210;2023-05-07T11:54:17;4.53;;;3.63;;
2966;SDS011;1493;51.496;7.210;2023-05-07T11:56:44;4.63;;;4.03;;
2966;SDS011;1493;51.496;7.210;2023-05-07T11:59:12;4.40;;;3.63;;
2966;SDS011;1493;51.496;7.210;2023-05-07T12:01:46;3.60;;;3.20;;
2966;SDS011;1493;51.496;7.210;2023-05-07T12:04:16;3.93;;;3.53;;
2966;SDS011;1493;51.496;7.210;2023-05-07T12:06:46;4.77;;;4.27;;
2966;SDS011;1493;51.496;7.210;2023-05-07T12:09:13;4.43;;;3.80;;
2966;SDS011;1493;51.496;7.210;2023-05-07T12:11:39;5.80;;;5.30;;
2966;SDS011;1493;51.496;7.210;2023-05-07T12:14:11;5.30;;;4.63;;
2966;SDS011;1493;51.496;7.210;2023-05-07T12:16:38;4.03;;;3.60;;
2966;SDS011;1493;51.496;7.210;2023-05-07T12:19:06;5.03;;;4.53;;
2966;SDS011;1493;51.496;7.210;2023-05-07T12:21:38;4.87;;;4.03;;
2966;SDS011;1493;51.496;7.210;2023-05-07T12:24:06;4.50;;;3.80;;
2966;SDS011;1493;51.496;7.210;2023-05-07T12:26:37;5.47;;;3.50;;
2966;SDS011;1493;51.496;7.210;2023-05-07T12:29:07;4.90;;;4.33;;
2966;SDS011;1493;51.496;7.210;2023-05-07T12:31:34;5.43;;;4.77;;
2966;SDS011;1493;51.496;7.210;2023-05-07T12:34:01;5.67;;;3.90;;
2966;SDS011;1493;51.496;7.210;2023-05-07T12:36:35;5.37;;;4.70;;
2966;SDS011;1493;51.496;7.210;2023-05-07T12:39:05;5.57;;;5.00;;
2966;SDS011;1493;51.496;7.210;2023-05-07T12:41:35;5.67;;;4.80;;
2966;SDS011;1493;51.496;7.210;2023-05-07T12:44:04;5.33;;;4.80;;
2966;SDS011;1493;51.496;7.210;2023-05-07T12:46:31;6.00;;;5.40;;
2966;SDS011;1493;51.496;7.210;2023-05-07T12:48:58;4.57;;;4.07;;
2966;SDS011;1493;51.496;7.210;2023-05-07T12:51:25;9.67;;;4.00;;
2966;SDS011;1493;51.496;7.210;2023-05-07T12:53:55;4.10;;;3.60;;
2966;SDS011;1493;51.496;7.210;2023-05-07T12:56:23;4.53;;;3.93;;
2966;SDS011;1493;51.496;7.210;2023-05-07T12:58:50;5.37;;;3.90;;
2966;SDS011;1493;51.496;7.210;2023-05-07T13:01:17;6.10;;;3.93;;
2966;SDS011;1493;51.496;7.210;2023-05-07T13:03:47;5.70;;;3.87;;
2966;SDS011;1493;51.496;7.210;2023-05-07T13:06:15;7.03;;;5.80;;
2966;SDS011;1493;51.496;7.210;2023-05-07T13:08:42;5.83;;;5.07;;
2966;SDS011;1493;51.496;7.210;2023-05-07T13:11:09;6.10;;;4.83;;
2966;SDS011;1493;51.496;7.210;2023-05-07T13:13:39;5.30;;;4.47;;
2966;SDS011;1493;51.496;7.210;2023-05-07T13:16:08;5.67;;;5.17;;
2966;SDS011;1493;51.496;7.210;2023-05-07T13:18:36;6.13;;;4.70;;
2966;SDS011;1493;51.496;7.210;2023-05-07T13:21:04;7.67;;;4.83;;
2966;SDS011;1493;51.496;7.210;2023-05-07T13:23:31;6.37;;;5.13;;
2966;SDS011;1493;51.496;7.210;2023-05-07T13:25:57;9.03;;;5.50;;
2966;SDS011;1493;51.496;7.210;2023-05-07T13:28:24;6.63;;;5.90;;
2966;SDS011;1493;51.496;7.210;2023-05-07T13:30:53;6.10;;;5.50;;
2966;SDS011;1493;51.496;7.210;2023-05-07T13:33:20;4.97;;;4.40;;
2966;SDS011;1493;51.496;7.210;2023-05-07T13:35:47;6.07;;;5.20;;
2966;SDS011;1493;51.496;7.210;2023-05-07T13:38:14;8.63;;;5.50;;
2966;SDS011;1493;51.496;7.210;2023-05-07T13:40:41;6.10;;;5.40;;
2966;SDS011;1493;51.496;7.210;2023-05-07T13:43:07;7.00;;;5.63;;
2966;SDS011;1493;51.496;7.210;2023-05-07T13:45:35;5.67;;;4.97;;
2966;SDS011;1493;51.496;7.210;2023-05-07T13:48:03;5.00;;;4.50;;
2966;SDS011;1493;51.496;7.210;2023-05-07T13:50:30;7.10;;;5.00;;
2966;SDS011;1493;51.496;7.210;2023-05-07T13:52:57;6.50;;;5.23;;
2966;SDS011;1493;51.496;7.210;2023-05-07T13:55:24;6.33;;;4.80;;
2966;SDS011;1493;51.496;7.210;2023-05-07T13:57:55;5.13;;;4.20;;
2966;SDS011;1493;51.496;7.210;2023-05-07T14:00:24;5.90;;;4.50;;
2966;SDS011;1493;51.496;7.210;2023-05-07T14:02:51;5.70;;;4.67;;
2966;SDS011;1493;51.496;7.210;2023-05-07T14:05:19;5.30;;;4.20;;
2966;SDS011;1493;51.496;7.210;2023-05-07T14:07:48;8.70;;;5.13;;
2966;SDS011;1493;51.496;7.210;2023-05-07T14:10:16;5.00;;;4.30;;
2966;SDS011;1493;51.496;7.210;2023-05-07T14:12:44;6.20;;;5.07;;
2966;SDS011;1493;51.496;7.210;2023-05-07T14:15:11;5.17;;;4.57;;
2966;SDS011;1493;51.496;7.210;2023-05-07T14:17:38;4.73;;;4.07;;
2966;SDS011;1493;51.496;7.210;2023-05-07T14:20:05;6.70;;;5.20;;
2966;SDS011;1493;51.496;7.210;2023-05-07T14:22:36;6.33;;;4.80;;
2966;SDS011;1493;51.496;7.210;2023-05-07T14:25:03;5.27;;;4.77;;
2966;SDS011;1493;51.496;7.210;2023-05-07T14:27:31;6.30;;;5.50;;
2966;SDS011;1493;51.496;7.210;2023-05-07T14:29:58;6.87;;;6.20;;
2966;SDS011;1493;51.496;7.210;2023-05-07T14:32:25;5.07;;;4.50;;
2966;SDS011;1493;51.496;7.210;2023-05-07T14:34:52;5.07;;;4.40;;
2966;SDS011;1493;51.496;7.210;2023-05-07T14:37:19;4.50;;;3.67;;
2966;SDS011;1493;51.496;7.210;2023-05-07T14:39:48;3.73;;;3.40;;
2966;SDS011;1493;51.496;7.210;2023-05-07T14:42:15;4.60;;;4.07;;
2966;SDS011;1493;51.496;7.210;2023-05-07T14:44:42;5.93;;;4.10;;
2966;SDS011;1493;51.496;7.210;2023-05-07T14:47:10;6.33;;;4.10;;
2966;SDS011;1493;51.496;7.210;2023-05-07T14:49:37;5.00;;;4.17;;
2966;SDS011;1493;51.496;7.210;2023-05-07T14:52:04;6.80;;;4.20;;
2966;SDS011;1493;51.496;7.210;2023-05-07T14:54:33;5.83;;;4.50;;
2966;SDS011;1493;51.496;7.210;2023-05-07T14:57:03;6.00;;;4.17;;
2966;SDS011;1493;51.496;7.210;2023-05-07T14:59:31;4.50;;;3.97;;
2966;SDS011;1493;51.496;7.210;2023-05-07T15:02:00;4.20;;;3.53;;
2966;SDS011;1493;51.496;7.210;2023-05-07T15:04:38;4.23;;;3.57;;
2966;SDS011;1493;51.496;7.210;2023-05-07T15:07:27;4.63;;;4.10;;
2966;SDS011;1493;51.496;7.210;2023-05-07T15:13:16;7.00;;;4.93;;
2966;SDS011;1493;51.496;7.210;2023-05-07T15:15:46;4.90;;;4.40;;
2966;SDS011;1493;51.496;7.210;2023-05-07T15:18:15;5.30;;;4.37;;
2966;SDS011;1493;51.496;7.210;2023-05-07T15:20:44;4.93;;;4.40;;